createdAt,value
2019-03-29T00:01:48.937Z,8.50
2019-03-29T00:04:14.893Z,8.39
2019-03-29T00:06:40.989Z,8.58
2019-03-29T00:09:07.021Z,8.35
2019-03-29T00:11:33.027Z,8.44
2019-03-29T00:13:59.066Z,8.28
2019-03-29T00:16:25.917Z,8.41
2019-03-29T00:18:52.148Z,8.37
2019-03-29T00:21:18.109Z,8.06
2019-03-29T00:23:44.099Z,7.27
2019-03-29T00:26:10.113Z,7.13
2019-03-29T00:28:36.852Z,7.66
2019-03-29T00:31:02.955Z,7.51
2019-03-29T00:33:28.931Z,6.94
2019-03-29T00:35:54.930Z,7.10
2019-03-29T00:38:20.958Z,7.56
2019-03-29T00:40:46.903Z,7.18
2019-03-29T00:43:12.865Z,5.91
2019-03-29T00:45:38.875Z,6.43
2019-03-29T00:48:04.823Z,6.99
2019-03-29T00:50:30.866Z,6.48
2019-03-29T00:52:56.821Z,6.82
2019-03-29T00:55:22.827Z,6.85
2019-03-29T00:57:48.854Z,7.05
2019-03-29T01:00:14.866Z,7.13
2019-03-29T01:02:40.914Z,7.10
2019-03-29T01:05:06.941Z,6.86
2019-03-29T01:07:32.965Z,6.75
2019-03-29T01:09:58.911Z,7.04
2019-03-29T01:12:24.905Z,7.12
2019-03-29T01:14:50.931Z,7.14
2019-03-29T01:17:16.876Z,7.23
2019-03-29T01:19:42.916Z,7.37
2019-03-29T01:22:08.916Z,7.36
2019-03-29T01:24:34.976Z,7.09
2019-03-29T01:27:01.062Z,6.97
2019-03-29T01:29:27.084Z,7.35
2019-03-29T01:31:53.036Z,7.35
2019-03-29T01:34:19.059Z,7.37
2019-03-29T01:36:45.017Z,7.49
2019-03-29T01:39:11.074Z,7.50
2019-03-29T01:41:37.147Z,7.53
2019-03-29T01:44:03.122Z,7.30
2019-03-29T01:46:29.147Z,7.21
2019-03-29T01:48:55.177Z,7.14
2019-03-29T01:51:21.210Z,7.14
2019-03-29T01:53:47.156Z,7.24
2019-03-29T01:56:13.126Z,7.12
2019-03-29T01:58:39.162Z,6.99
2019-03-29T02:01:05.110Z,7.14
2019-03-29T02:03:31.064Z,6.91
2019-03-29T02:05:57.053Z,6.70
2019-03-29T02:08:35.202Z,6.36
2019-03-29T02:10:50.870Z,6.88
2019-03-29T02:13:16.924Z,6.64
2019-03-29T02:15:43.002Z,6.50
2019-03-29T02:18:09.036Z,6.60
2019-03-29T02:20:35.020Z,6.53
2019-03-29T02:23:00.993Z,6.41
2019-03-29T02:25:26.944Z,6.51
2019-03-29T02:27:53.095Z,5.98
2019-03-29T02:30:19.470Z,5.94
2019-03-29T02:32:45.428Z,5.64
2019-03-29T02:35:11.920Z,5.82
2019-03-29T02:37:38.058Z,5.95
2019-03-29T02:40:04.019Z,6.07
2019-03-29T02:42:29.963Z,6.18
2019-03-29T02:44:55.940Z,5.89
2019-03-29T02:47:22.102Z,6.12
2019-03-29T02:49:48.297Z,6.09
2019-03-29T02:52:14.316Z,6.26
2019-03-29T02:54:40.321Z,6.29
2019-03-29T02:57:06.349Z,6.17
2019-03-29T02:59:32.304Z,6.29
2019-03-29T03:01:58.282Z,6.46
2019-03-29T03:04:24.352Z,6.16
2019-03-29T03:06:50.300Z,6.13
2019-03-29T03:09:16.375Z,6.03
2019-03-29T03:11:42.354Z,5.81
2019-03-29T03:14:08.437Z,5.67
2019-03-29T03:16:34.527Z,6.18
2019-03-29T03:19:00.596Z,5.55
2019-03-29T03:21:26.604Z,6.39
2019-03-29T03:23:52.579Z,6.11
2019-03-29T03:26:18.541Z,6.37
2019-03-29T03:28:44.525Z,6.29
2019-03-29T03:31:10.594Z,6.06
2019-03-29T03:33:36.619Z,6.15
2019-03-29T03:36:02.669Z,6.15
2019-03-29T03:38:28.612Z,6.28
2019-03-29T03:40:54.614Z,6.04
2019-03-29T03:43:20.564Z,5.88
2019-03-29T03:45:46.521Z,5.04
2019-03-29T03:48:12.606Z,5.06
2019-03-29T03:50:38.659Z,5.12
2019-03-29T03:53:04.612Z,5.27
2019-03-29T03:55:30.748Z,5.48
2019-03-29T03:57:58.001Z,5.85
2019-03-29T04:00:24.235Z,5.84
2019-03-29T04:02:50.305Z,5.13
2019-03-29T04:05:16.250Z,5.71
2019-03-29T04:07:42.370Z,5.55
2019-03-29T04:10:08.443Z,5.45
2019-03-29T04:12:34.423Z,5.27
2019-03-29T04:15:00.469Z,5.41
2019-03-29T04:17:26.699Z,5.19
2019-03-29T04:19:52.761Z,5.67
2019-03-29T04:22:18.853Z,5.67
2019-03-29T04:24:44.892Z,5.85
2019-03-29T04:27:10.966Z,5.34
2019-03-29T04:29:36.932Z,5.71
2019-03-29T04:32:02.907Z,5.94
2019-03-29T04:34:29.066Z,5.35
2019-03-29T04:36:55.144Z,5.80
2019-03-29T04:39:21.114Z,5.66
2019-03-29T04:41:47.155Z,5.55
2019-03-29T04:44:13.234Z,5.66
2019-03-29T04:46:39.244Z,5.37
2019-03-29T04:49:05.289Z,5.31
2019-03-29T04:51:31.296Z,5.62
2019-03-29T04:53:57.367Z,5.47
2019-03-29T04:56:23.348Z,5.78
2019-03-29T04:58:49.357Z,5.62
2019-03-29T05:01:17.351Z,5.80
2019-03-29T05:03:43.195Z,5.77
2019-03-29T05:06:09.242Z,5.78
2019-03-29T05:08:35.193Z,5.78
2019-03-29T05:11:01.282Z,5.56
2019-03-29T05:13:27.245Z,5.82
2019-03-29T05:15:53.199Z,5.56
2019-03-29T05:18:19.207Z,5.27
2019-03-29T05:20:45.165Z,5.27
2019-03-29T05:23:11.288Z,5.17
2019-03-29T05:25:37.358Z,5.55
2019-03-29T05:28:03.428Z,5.34
2019-03-29T05:30:29.402Z,5.26
2019-03-29T05:32:55.389Z,5.62
2019-03-29T05:35:21.487Z,5.42
2019-03-29T05:37:47.533Z,5.41
2019-03-29T05:40:13.658Z,5.47
2019-03-29T05:42:39.622Z,5.73
2019-03-29T05:45:05.702Z,5.56
2019-03-29T05:47:31.667Z,5.64
2019-03-29T05:49:57.673Z,5.68
2019-03-29T05:52:23.606Z,5.36
2019-03-29T05:54:49.588Z,5.71
2019-03-29T05:57:15.597Z,5.99
2019-03-29T05:59:41.524Z,5.84
2019-03-29T06:02:07.500Z,5.94
2019-03-29T06:04:33.495Z,5.83
2019-03-29T06:06:59.567Z,5.50
2019-03-29T06:09:25.692Z,5.85
2019-03-29T06:11:51.774Z,5.71
2019-03-29T06:14:17.746Z,6.03
2019-03-29T06:16:43.829Z,6.11
2019-03-29T06:19:09.825Z,6.27
2019-03-29T06:21:35.775Z,6.03
2019-03-29T06:24:02.230Z,6.05
2019-03-29T06:26:28.253Z,6.14
2019-03-29T06:28:54.264Z,5.71
2019-03-29T06:31:20.326Z,6.30
2019-03-29T06:33:46.437Z,6.12
2019-03-29T06:36:12.395Z,6.48
2019-03-29T06:38:38.471Z,6.44
2019-03-29T06:41:04.478Z,6.23
2019-03-29T06:43:30.503Z,6.66
2019-03-29T06:45:56.543Z,6.44
2019-03-29T06:48:22.680Z,6.44
2019-03-29T06:50:48.847Z,6.29
2019-03-29T06:53:15.059Z,6.63
2019-03-29T06:55:41.014Z,6.96
2019-03-29T06:58:06.966Z,7.31
2019-03-29T07:00:33.011Z,7.38
2019-03-29T07:02:59.086Z,7.56
2019-03-29T07:05:25.176Z,7.62
2019-03-29T07:07:51.302Z,7.99
2019-03-29T07:10:17.260Z,7.77
2019-03-29T07:12:43.282Z,7.85
2019-03-29T07:15:09.351Z,8.04
2019-03-29T07:17:35.431Z,8.44
2019-03-29T07:20:01.615Z,8.50
2019-03-29T07:22:27.645Z,8.62
2019-03-29T07:24:53.597Z,8.54
2019-03-29T07:27:19.557Z,9.01
2019-03-29T07:29:45.617Z,9.12
2019-03-29T07:32:11.640Z,9.27
2019-03-29T07:34:37.808Z,9.28
2019-03-29T07:37:05.777Z,9.53
2019-03-29T07:39:31.797Z,9.70
2019-03-29T07:41:58.024Z,9.84
2019-03-29T07:44:23.994Z,9.77
2019-03-29T07:46:50.056Z,9.93
2019-03-29T07:49:16.115Z,10.38
2019-03-29T07:51:42.146Z,10.26
2019-03-29T07:54:08.213Z,10.69
2019-03-29T07:56:34.297Z,10.88
2019-03-29T08:13:24.253Z,10.99
2019-03-29T08:15:50.299Z,11.44
2019-03-29T08:18:16.365Z,10.71
2019-03-29T08:20:44.382Z,11.39
2019-03-29T08:23:10.304Z,11.63
2019-03-29T08:25:36.317Z,11.96
2019-03-29T08:28:02.362Z,12.35
2019-03-29T08:30:28.369Z,12.50
2019-03-29T08:32:54.348Z,12.47
2019-03-29T08:35:20.495Z,12.92
2019-03-29T08:37:46.479Z,12.21
2019-03-29T08:40:12.459Z,12.37
2019-03-29T08:42:38.502Z,12.64
2019-03-29T08:45:04.527Z,12.57
2019-03-29T08:47:30.530Z,13.00
2019-03-29T08:49:56.587Z,13.08
2019-03-29T08:52:22.649Z,13.09
2019-03-29T08:54:51.200Z,13.13
2019-03-29T08:57:16.633Z,13.24
2019-03-29T08:59:42.659Z,13.80
2019-03-29T09:02:08.775Z,13.89
2019-03-29T09:04:34.863Z,13.82
2019-03-29T09:07:00.893Z,13.87
2019-03-29T09:09:26.934Z,13.49
2019-03-29T09:11:53.001Z,13.62
2019-03-29T09:14:19.095Z,14.15
2019-03-29T09:16:45.213Z,14.59
2019-03-29T09:19:11.249Z,14.02
2019-03-29T09:21:37.273Z,14.16
2019-03-29T09:24:03.262Z,14.72
2019-03-29T09:26:29.228Z,14.76
2019-03-29T09:28:55.214Z,14.80
2019-03-29T09:31:21.288Z,14.89
2019-03-29T09:33:47.320Z,14.64
2019-03-29T09:36:13.424Z,15.13
2019-03-29T09:38:39.417Z,15.15
2019-03-29T09:41:05.481Z,14.48
2019-03-29T09:43:31.455Z,14.31
2019-03-29T09:45:57.571Z,15.11
2019-03-29T09:48:23.558Z,15.33
2019-03-29T09:50:50.905Z,15.35
2019-03-29T09:53:17.392Z,15.80
2019-03-29T09:55:45.701Z,16.01
2019-03-29T09:58:11.498Z,15.99
2019-03-29T10:00:37.465Z,15.79
2019-03-29T10:03:03.434Z,15.76
2019-03-29T10:05:31.332Z,16.10
2019-03-29T10:07:57.550Z,15.70
2019-03-29T10:10:23.606Z,16.10
2019-03-29T10:12:49.753Z,16.09
2019-03-29T10:15:15.724Z,16.09
2019-03-29T10:17:41.769Z,16.11
2019-03-29T10:20:07.765Z,15.88
2019-03-29T10:22:33.724Z,15.57
2019-03-29T10:25:02.099Z,16.28
2019-03-29T10:27:27.612Z,16.04
2019-03-29T10:29:53.618Z,16.04
2019-03-29T10:32:19.686Z,16.33
2019-03-29T10:34:45.723Z,16.79
2019-03-29T10:37:11.720Z,16.56
2019-03-29T10:39:37.754Z,16.86
2019-03-29T10:42:03.751Z,16.48
2019-03-29T10:44:30.011Z,16.72
2019-03-29T10:46:56.503Z,17.24
2019-03-29T10:49:22.604Z,17.55
2019-03-29T10:51:48.755Z,17.66
2019-03-29T10:54:14.853Z,18.16
2019-03-29T10:56:40.975Z,17.52
2019-03-29T10:59:07.102Z,18.00
2019-03-29T11:01:33.115Z,17.67
2019-03-29T11:03:59.163Z,16.81
2019-03-29T11:06:25.119Z,17.33
2019-03-29T11:08:51.117Z,17.71
2019-03-29T11:11:17.232Z,18.08
2019-03-29T11:13:43.253Z,17.85
2019-03-29T11:16:09.295Z,17.85
2019-03-29T11:18:35.329Z,18.48
2019-03-29T11:21:01.405Z,18.50
2019-03-29T11:23:27.453Z,18.65
2019-03-29T11:25:53.455Z,18.44
2019-03-29T11:28:19.508Z,18.42
2019-03-29T11:30:45.647Z,18.66
2019-03-29T11:33:12.015Z,18.79
2019-03-29T11:35:38.125Z,18.49
2019-03-29T11:38:04.242Z,18.34
2019-03-29T11:40:30.323Z,18.41
2019-03-29T11:42:56.610Z,18.52
2019-03-29T11:45:22.617Z,18.96
2019-03-29T11:47:48.721Z,19.78
2019-03-29T11:50:14.738Z,19.35
2019-03-29T11:52:40.955Z,19.42
2019-03-29T11:55:06.970Z,19.77
2019-03-29T11:57:33.057Z,19.64
2019-03-29T11:59:59.053Z,19.60
2019-03-29T12:02:31.423Z,19.73
2019-03-29T12:04:53.055Z,20.10
2019-03-29T12:07:19.187Z,20.53
2019-03-29T12:09:45.177Z,20.00
2019-03-29T12:12:11.194Z,20.45
2019-03-29T12:14:37.172Z,20.90
2019-03-29T12:17:03.372Z,20.11
2019-03-29T12:19:29.311Z,20.30
2019-03-29T12:21:55.345Z,20.33
2019-03-29T12:24:21.389Z,20.38
2019-03-29T12:26:47.384Z,19.92
2019-03-29T12:29:13.377Z,20.76
2019-03-29T12:31:39.500Z,21.23
2019-03-29T12:34:05.818Z,21.57
2019-03-29T12:36:31.905Z,21.49
2019-03-29T12:38:57.969Z,21.30
2019-03-29T12:41:23.937Z,20.55
2019-03-29T12:43:55.992Z,20.58
2019-03-29T12:46:17.972Z,21.16
2019-03-29T12:48:44.082Z,21.61
2019-03-29T12:51:10.063Z,22.27
2019-03-29T12:53:36.132Z,21.59
2019-03-29T12:56:02.099Z,20.81
2019-03-29T12:58:28.224Z,21.26
2019-03-29T13:00:54.288Z,21.89
2019-03-29T13:03:20.271Z,21.89
2019-03-29T13:05:46.455Z,21.90
2019-03-29T13:08:12.694Z,21.29
2019-03-29T13:10:38.713Z,21.28
2019-03-29T13:13:04.869Z,20.89
2019-03-29T13:15:30.879Z,20.64
2019-03-29T13:17:56.979Z,21.14
2019-03-29T13:20:23.050Z,20.98
2019-03-29T13:22:49.168Z,21.42
2019-03-29T13:25:15.197Z,20.33
2019-03-29T13:27:41.298Z,19.64
2019-03-29T13:30:07.377Z,19.50
2019-03-29T13:32:33.722Z,19.97
2019-03-29T13:35:00.013Z,20.17
2019-03-29T13:37:25.984Z,20.21
2019-03-29T13:39:52.067Z,20.05
2019-03-29T13:42:18.086Z,19.98
2019-03-29T13:44:44.099Z,19.25
2019-03-29T13:47:10.258Z,19.28
2019-03-29T13:49:36.246Z,19.36
2019-03-29T13:52:02.276Z,19.13
2019-03-29T13:54:28.269Z,18.97
2019-03-29T13:56:54.334Z,17.93
2019-03-29T13:59:20.359Z,17.42
2019-03-29T14:01:46.479Z,16.31
2019-03-29T14:04:12.537Z,16.14
2019-03-29T14:06:38.483Z,16.25
2019-03-29T14:09:04.558Z,16.03
2019-03-29T14:11:30.633Z,16.38
2019-03-29T14:13:56.616Z,16.44
2019-03-29T14:16:22.592Z,16.98
2019-03-29T14:18:48.594Z,16.81
2019-03-29T14:21:14.629Z,16.78
2019-03-29T14:23:40.587Z,17.05
2019-03-29T14:26:06.739Z,17.07
2019-03-29T14:28:32.729Z,17.48
2019-03-29T14:30:58.788Z,17.56
2019-03-29T14:33:24.770Z,17.55
2019-03-29T14:35:50.828Z,17.53
2019-03-29T14:38:16.898Z,17.60
2019-03-29T14:40:42.995Z,17.85
2019-03-29T14:43:08.986Z,17.10
2019-03-29T14:45:34.954Z,17.08
2019-03-29T14:48:01.064Z,17.33
2019-03-29T14:50:27.086Z,17.48
2019-03-29T14:52:53.137Z,17.50
2019-03-29T14:55:19.136Z,17.45
2019-03-29T14:57:45.236Z,17.67
2019-03-29T15:00:11.704Z,17.50
2019-03-29T15:02:37.768Z,17.29
2019-03-29T15:05:03.815Z,17.66
2019-03-29T15:07:29.937Z,17.72
2019-03-29T15:09:56.132Z,18.46
2019-03-29T15:12:22.241Z,18.16
2019-03-29T15:14:48.207Z,18.00
2019-03-29T15:17:14.319Z,18.07
2019-03-29T15:19:40.295Z,18.03
2019-03-29T15:22:06.225Z,18.35
2019-03-29T15:24:32.204Z,18.17
2019-03-29T15:26:58.266Z,18.36
2019-03-29T15:29:24.237Z,18.11
2019-03-29T15:31:50.237Z,18.36
2019-03-29T15:34:16.276Z,18.59
2019-03-29T15:36:42.318Z,18.42
2019-03-29T15:39:08.324Z,18.53
2019-03-29T15:41:34.393Z,18.72
2019-03-29T15:44:00.384Z,18.71
2019-03-29T15:46:26.367Z,18.35
2019-03-29T15:48:52.435Z,17.63
2019-03-29T15:51:18.402Z,17.68
2019-03-29T15:53:44.388Z,17.68
2019-03-29T15:56:10.417Z,17.45
2019-03-29T15:58:36.528Z,17.42
2019-03-29T16:01:02.550Z,17.14
2019-03-29T16:03:28.573Z,16.38
2019-03-29T16:05:54.569Z,16.29
2019-03-29T16:08:20.648Z,15.66
2019-03-29T16:10:46.664Z,15.65
2019-03-29T16:13:12.655Z,15.57
2019-03-29T16:15:38.658Z,15.32
2019-03-29T16:18:04.742Z,14.96
2019-03-29T16:20:30.846Z,15.11
2019-03-29T16:22:56.880Z,14.95
2019-03-29T16:25:22.861Z,14.49
2019-03-29T16:27:48.935Z,14.49
2019-03-29T16:30:15.109Z,13.99
2019-03-29T16:32:41.222Z,14.09
2019-03-29T16:35:07.321Z,13.85
2019-03-29T16:37:33.460Z,13.57
2019-03-29T16:39:59.684Z,13.49
2019-03-29T16:42:25.713Z,13.61
2019-03-29T16:44:51.899Z,13.63
2019-03-29T16:47:17.948Z,13.61
2019-03-29T16:49:43.948Z,13.21
2019-03-29T16:52:10.019Z,13.26
2019-03-29T16:54:36.168Z,13.20
2019-03-29T16:57:02.245Z,12.94
2019-03-29T16:59:28.313Z,12.97
2019-03-29T17:01:55.576Z,13.14
2019-03-29T17:04:21.766Z,12.82
2019-03-29T17:06:47.724Z,12.70
2019-03-29T17:09:13.808Z,12.90
2019-03-29T17:11:40.021Z,12.91
2019-03-29T17:14:06.044Z,12.79
2019-03-29T17:16:32.091Z,12.48
2019-03-29T17:18:58.060Z,12.47
2019-03-29T17:21:24.166Z,11.91
2019-03-29T17:23:52.733Z,12.24
2019-03-29T17:26:18.073Z,12.06
2019-03-29T17:28:44.082Z,12.13
2019-03-29T17:31:11.556Z,12.45
2019-03-29T17:33:37.571Z,12.15
2019-03-29T17:36:06.426Z,12.09
2019-03-29T17:38:32.489Z,11.81
2019-03-29T17:40:58.666Z,12.15
2019-03-29T17:43:24.627Z,11.79
2019-03-29T17:45:50.653Z,11.79
2019-03-29T17:48:16.645Z,11.54
2019-03-29T17:50:42.720Z,12.10
2019-03-29T17:53:08.689Z,12.10
2019-03-29T17:55:34.710Z,11.84
2019-03-29T17:58:00.803Z,12.16
2019-03-29T18:00:26.920Z,12.10
2019-03-29T18:02:52.920Z,12.19
2019-03-29T18:05:18.894Z,12.03
2019-03-29T18:07:44.975Z,12.11
2019-03-29T18:10:10.951Z,12.07
2019-03-29T18:12:37.086Z,12.15
2019-03-29T18:15:03.313Z,12.21
2019-03-29T18:17:29.383Z,11.82
2019-03-29T18:19:55.438Z,11.89
2019-03-29T18:22:21.452Z,12.03
2019-03-29T18:24:47.422Z,11.83
2019-03-29T18:27:13.428Z,11.96
2019-03-29T18:29:39.462Z,12.05
2019-03-29T18:32:05.587Z,12.12
2019-03-29T18:34:31.547Z,11.90
2019-03-29T18:36:57.588Z,12.05
2019-03-29T18:39:23.569Z,12.19
2019-03-29T18:41:49.627Z,12.04
2019-03-29T18:44:15.754Z,11.45
2019-03-29T18:46:44.902Z,11.46
2019-03-29T18:49:09.669Z,11.19
2019-03-29T18:51:35.647Z,11.16
2019-03-29T18:54:01.652Z,11.49
2019-03-29T18:56:27.750Z,11.36
2019-03-29T18:58:53.806Z,11.66
2019-03-29T19:04:00.689Z,11.75
2019-03-29T19:06:28.456Z,11.77
2019-03-29T19:08:56.369Z,11.95
2019-03-29T19:11:24.234Z,11.83
2019-03-29T19:13:51.978Z,12.08
2019-03-29T19:16:19.712Z,11.90
2019-03-29T19:18:47.462Z,12.04
2019-03-29T19:21:15.309Z,11.75
2019-03-29T19:23:43.196Z,11.81
2019-03-29T19:26:10.958Z,11.87
2019-03-29T19:28:38.707Z,11.79
2019-03-29T19:31:06.453Z,11.77
2019-03-29T19:33:34.175Z,11.67
2019-03-29T19:36:01.883Z,11.54
2019-03-29T19:38:29.666Z,11.36
2019-03-29T19:40:57.391Z,11.01
2019-03-29T19:43:25.300Z,11.23
2019-03-29T19:45:53.292Z,11.44
2019-03-29T19:48:21.023Z,11.16
2019-03-29T19:50:48.814Z,11.45
2019-03-29T19:53:16.637Z,11.34
2019-03-29T19:55:44.547Z,11.54
2019-03-29T19:58:12.483Z,11.76
2019-03-29T20:00:40.498Z,11.72
2019-03-29T20:03:08.336Z,11.56
2019-03-29T20:05:36.107Z,11.49
2019-03-29T20:08:04.056Z,11.69
2019-03-29T20:10:31.901Z,11.77
2019-03-29T20:12:59.707Z,11.64
2019-03-29T20:15:27.439Z,11.54
2019-03-29T20:17:55.253Z,11.57
2019-03-29T20:20:22.957Z,11.51
2019-03-29T20:22:50.709Z,11.54
2019-03-29T20:25:18.567Z,11.48
2019-03-29T20:27:46.403Z,11.55
2019-03-29T20:30:14.109Z,11.58
2019-03-29T20:32:41.965Z,11.60
2019-03-29T20:35:09.831Z,11.44
2019-03-29T20:37:37.603Z,11.64
2019-03-29T20:40:05.464Z,11.61
2019-03-29T20:42:33.236Z,11.55
2019-03-29T20:45:00.974Z,11.45
2019-03-29T20:47:41.449Z,11.47
2019-03-29T20:49:58.344Z,11.32
2019-03-29T20:52:26.522Z,11.42
2019-03-29T20:54:54.389Z,11.32
2019-03-29T20:57:22.233Z,11.19
2019-03-29T20:59:50.060Z,11.27
2019-03-29T21:02:18.236Z,11.05
2019-03-29T21:04:46.144Z,11.11
2019-03-29T21:07:13.935Z,11.10
2019-03-29T21:09:41.701Z,11.05
2019-03-29T21:12:09.522Z,11.13
2019-03-29T21:14:37.261Z,11.16
2019-03-29T21:17:05.082Z,11.12
2019-03-29T21:19:32.895Z,10.94
2019-03-29T21:22:00.688Z,11.05
2019-03-29T21:24:28.540Z,10.95
2019-03-29T21:26:56.530Z,10.67
2019-03-29T21:29:24.282Z,10.98
2019-03-29T21:31:52.025Z,10.57
2019-03-29T21:34:19.827Z,10.15
2019-03-29T21:36:47.640Z,9.78
2019-03-29T21:39:15.387Z,9.78
2019-03-29T21:41:43.120Z,10.00
2019-03-29T21:44:11.170Z,10.17
2019-03-29T21:46:38.916Z,10.13
2019-03-29T21:49:06.761Z,10.20
2019-03-29T21:51:34.615Z,10.34
2019-03-29T21:54:02.442Z,9.96
2019-03-29T21:56:30.337Z,10.41
2019-03-29T21:58:58.096Z,10.13
2019-03-29T22:01:26.006Z,9.94
2019-03-29T22:03:53.764Z,10.25
2019-03-29T22:06:21.603Z,9.98
2019-03-29T22:08:49.469Z,10.35
2019-03-29T22:11:17.411Z,10.14
2019-03-29T22:13:45.259Z,9.95
2019-03-29T22:16:13.006Z,10.03
2019-03-29T22:18:40.811Z,8.84
2019-03-29T22:21:08.664Z,8.60
2019-03-29T22:23:36.484Z,8.60
2019-03-29T22:26:04.469Z,7.99
2019-03-29T22:28:32.327Z,8.27
2019-03-29T22:31:00.052Z,8.30
2019-03-29T22:33:27.830Z,8.92
2019-03-29T22:35:55.610Z,8.66
2019-03-29T22:38:23.346Z,8.39
2019-03-29T22:40:51.135Z,8.75
2019-03-29T22:43:18.863Z,8.58
2019-03-29T22:45:47.318Z,8.58
2019-03-29T22:48:15.228Z,9.00
2019-03-29T22:50:43.012Z,9.20
2019-03-29T22:53:10.794Z,9.20
2019-03-29T22:55:38.867Z,8.75
2019-03-29T22:58:06.619Z,8.85
2019-03-29T23:00:38.751Z,8.85
2019-03-29T23:03:06.579Z,8.91
2019-03-29T23:05:34.357Z,8.31
2019-03-29T23:08:02.207Z,8.78
2019-03-29T23:10:30.090Z,8.46
2019-03-29T23:12:57.947Z,8.93
2019-03-29T23:15:25.729Z,8.93
2019-03-29T23:17:53.579Z,8.93
2019-03-29T23:20:21.353Z,9.18
2019-03-29T23:22:49.228Z,8.89
2019-03-29T23:25:17.175Z,8.36
2019-03-29T23:27:44.897Z,8.57
2019-03-29T23:30:12.638Z,8.76
2019-03-29T23:32:40.485Z,9.17
2019-03-29T23:35:08.255Z,8.35
2019-03-29T23:37:36.021Z,8.84
2019-03-29T23:40:04.044Z,8.78
2019-03-29T23:42:31.459Z,8.78
2019-03-29T23:44:59.225Z,8.96
2019-03-29T23:47:26.989Z,9.12
2019-03-29T23:49:54.690Z,8.92
2019-03-29T23:52:22.402Z,8.83
2019-03-29T23:54:50.163Z,8.52
2019-03-29T23:57:17.888Z,8.28
2019-03-29T23:59:46.000Z,7.91
